Time;durP1;ratioP1;P1;durP2;ratioP2;P2;SDS_P1;SDS_P2;PMS_P1;PMS_P2;Temp;Humidity;BMP_temperature;BMP_pressure;BME280_temperature;BME280_humidity;BME280_pressure;Samples;Min_cycle;Max_cycle;Signal;HPM_P1;HPM_P2
2021/07/03 00:02:14;;;;;;;6.13;1.00;;;;;;;24.17;51.12;100631.41;5096691;28;20396;-66
2021/07/03 00:04:59;;;;;;;10.25;0.73;;;;;;;24.11;51.33;100621.13;5093853;28;20431;-67
2021/07/03 00:07:44;;;;;;;4.82;0.90;;;;;;;24.06;51.78;100624.34;5093025;28;20051;-69
2021/07/03 00:10:29;;;;;;;3.83;1.08;;;;;;;24.01;51.70;100617.22;5092794;28;20047;-67
2021/07/03 00:13:14;;;;;;;5.35;1.02;;;;;;;24.06;51.68;100629.88;5096297;28;20047;-69
2021/07/03 00:15:59;;;;;;;5.63;0.98;;;;;;;24.08;52.52;100622.72;5092756;28;20042;-68
2021/07/03 00:18:44;;;;;;;5.07;0.75;;;;;;;24.12;52.08;100609.59;5092395;28;20502;-68
2021/07/03 00:21:30;;;;;;;2.38;0.90;;;;;;;24.21;52.06;100614.72;5090076;28;20036;-67
2021/07/03 00:24:16;;;;;;;5.20;0.93;;;;;;;24.27;51.66;100616.66;5090139;28;20538;-67
2021/07/03 00:27:01;;;;;;;4.15;0.70;;;;;;;24.21;51.90;100614.72;5096296;28;20113;-68
2021/07/03 00:29:46;;;;;;;5.57;1.30;;;;;;;24.23;52.01;100623.41;5096359;28;20054;-67
2021/07/03 00:32:31;;;;;;;3.17;1.02;;;;;;;24.06;52.34;100614.00;5094175;28;20051;-67
2021/07/03 00:35:16;;;;;;;4.75;1.13;;;;;;;24.12;52.41;100626.28;5090334;28;20549;-67
2021/07/03 00:38:01;;;;;;;3.55;0.90;;;;;;;23.99;52.33;100627.94;5095458;28;20051;-67
2021/07/03 00:40:46;;;;;;;3.10;0.98;;;;;;;24.06;52.37;100629.88;5089856;28;20439;-66
2021/07/03 00:43:31;;;;;;;2.95;0.80;;;;;;;24.27;51.86;100633.31;5091105;28;20404;-68
2021/07/03 00:46:16;;;;;;;6.32;1.30;;;;;;;24.34;51.88;100628.88;5096716;28;20063;-68
2021/07/03 00:49:02;;;;;;;5.32;1.23;;;;;;;24.43;51.61;100627.19;5090530;28;20047;-69
2021/07/03 00:51:47;;;;;;;4.90;1.30;;;;;;;24.49;51.08;100620.00;5091469;28;20055;-67
2021/07/03 00:54:36;;;;;;;5.28;1.20;;;;;;;24.59;51.10;100623.88;5093286;28;20043;-67
2021/07/03 00:57:21;;;;;;;6.75;1.42;;;;;;;24.35;51.70;100625.69;5092117;28;20514;-67
2021/07/03 01:00:07;;;;;;;6.97;1.40;;;;;;;24.53;51.26;100623.53;5075924;28;20039;-69
2021/07/03 01:02:53;;;;;;;5.00;1.30;;;;;;;24.57;51.16;100638.19;5107266;28;20043;-68
2021/07/03 01:05:38;;;;;;;6.95;1.48;;;;;;;24.56;51.32;100644.97;5091042;28;20052;-68
2021/07/03 01:08:23;;;;;;;4.30;1.50;;;;;;;24.68;51.23;100638.88;5090583;28;20059;-68
2021/07/03 01:11:09;;;;;;;4.47;1.30;;;;;;;24.71;51.32;100649.19;5079463;28;20043;-68
2021/07/03 01:13:55;;;;;;;5.07;1.40;;;;;;;24.84;50.69;100645.88;5077841;28;20051;-68
2021/07/03 01:16:43;;;;;;;2.08;1.35;;;;;;;25.00;50.83;100648.88;5091335;28;20051;-68
2021/07/03 01:19:29;;;;;;;3.58;1.35;;;;;;;24.85;51.01;100647.44;5077910;28;20043;-68
2021/07/03 01:22:16;;;;;;;4.43;1.67;;;;;;;24.31;53.39;100652.75;5076215;28;20051;-67
2021/07/03 01:25:03;;;;;;;6.65;1.67;;;;;;;24.43;52.57;100659.78;5090828;28;20047;-67
2021/07/03 01:28:03;;;;;;;3.40;1.35;;;;;;;24.41;52.38;100646.28;5092981;28;20546;-68
2021/07/03 01:30:53;;;;;;;5.07;1.35;;;;;;;24.41;52.48;100654.63;5104316;28;20047;-68
2021/07/03 01:33:39;;;;;;;13.43;1.83;;;;;;;24.39;52.51;100654.25;5089187;28;20534;-69
2021/07/03 01:36:24;;;;;;;5.50;1.38;;;;;;;24.48;52.54;100656.56;5079972;28;20058;-68
2021/07/03 01:39:09;;;;;;;5.15;1.38;;;;;;;24.40;52.47;100658.59;5090579;28;20043;-68
2021/07/03 01:41:56;;;;;;;5.75;1.73;;;;;;;24.13;53.66;100668.72;5073964;28;20043;-69
2021/07/03 01:44:41;;;;;;;6.63;1.38;;;;;;;24.15;53.56;100671.88;5097347;28;20050;-69
2021/07/03 01:47:26;;;;;;;5.22;1.70;;;;;;;23.90;54.01;100658.19;5093676;28;20161;-68
2021/07/03 01:50:11;;;;;;;10.27;2.22;;;;;;;22.98;57.85;100658.59;5088373;28;20043;-69
2021/07/03 01:52:56;;;;;;;6.20;2.65;;;;;;;22.72;58.63;100648.75;5078555;28;20055;-69
2021/07/03 01:55:45;;;;;;;3.63;2.13;;;;;;;22.84;57.99;100650.31;5077237;28;20066;-68
2021/07/03 01:58:31;;;;;;;4.30;2.20;;;;;;;22.16;60.23;100647.56;5089881;28;20067;-68
2021/07/03 02:01:26;;;;;;;9.98;2.38;;;;;;;22.32;60.00;100641.63;5077511;28;20418;-68
2021/07/03 02:04:11;;;;;;;11.25;2.35;;;;;;;22.46;59.54;100641.63;5091582;28;20047;-68
2021/07/03 02:07:04;;;;;;;9.40;2.20;;;;;;;22.51;59.19;100634.88;5073645;28;20126;-67
2021/07/03 02:09:52;;;;;;;8.25;2.50;;;;;;;22.78;58.37;100654.69;5079945;28;20043;-67
2021/07/03 02:12:42;;;;;;;4.32;2.38;;;;;;;22.91;58.10;100651.06;5074717;28;20059;-68
2021/07/03 02:15:41;;;;;;;5.15;1.70;;;;;;;23.06;57.85;100643.50;5071158;28;20062;-68
2021/07/03 02:18:34;;;;;;;3.88;1.85;;;;;;;23.21;57.10;100647.03;5075532;28;20043;-69
2021/07/03 02:21:26;;;;;;;1.92;1.52;;;;;;;23.39;56.56;100642.19;5088718;28;20534;-67
2021/07/03 02:24:11;;;;;;;6.15;1.60;;;;;;;23.55;56.09;100650.84;5095775;28;20039;-68
2021/07/03 02:26:58;;;;;;;5.63;1.60;;;;;;;23.53;56.18;100644.91;5081233;28;20035;-66
2021/07/03 02:29:45;;;;;;;3.78;1.80;;;;;;;23.58;55.98;100644.47;5094269;28;20417;-67
2021/07/03 02:32:30;;;;;;;6.53;2.55;;;;;;;23.07;57.73;100644.28;5095237;28;20047;-67
2021/07/03 02:35:17;;;;;;;4.93;2.30;;;;;;;23.03;57.84;100642.31;5093405;28;20047;-66
2021/07/03 02:38:02;;;;;;;3.13;1.50;;;;;;;23.16;57.16;100639.88;5093784;28;20054;-67
2021/07/03 02:40:47;;;;;;;2.70;1.80;;;;;;;23.36;56.91;100651.31;5099254;28;20046;-68
2021/07/03 02:43:32;;;;;;;8.57;2.15;;;;;;;23.46;56.12;100652.50;5091128;28;20067;-67
2021/07/03 02:46:24;;;;;;;3.33;2.28;;;;;;;23.51;55.80;100650.09;5094490;28;20074;-68
2021/07/03 02:49:09;;;;;;;3.05;1.75;;;;;;;23.47;56.58;100652.06;5076069;28;20063;-67
2021/07/03 02:51:56;;;;;;;14.23;2.83;;;;;;;23.37;56.39;100653.69;5079492;28;20506;-68
2021/07/03 02:54:42;;;;;;;2.70;1.90;;;;;;;23.32;56.39;100654.09;5091648;28;20058;-66
2021/07/03 02:57:28;;;;;;;5.90;2.38;;;;;;;23.32;56.46;100648.53;5098565;28;20078;-69
2021/07/03 03:00:16;;;;;;;4.32;1.98;;;;;;;23.21;57.01;100649.81;5078826;28;20051;-69
2021/07/03 03:03:04;;;;;;;4.10;2.42;;;;;;;23.27;56.60;100646.19;5077477;28;20060;-68
2021/07/03 03:05:49;;;;;;;9.75;1.95;;;;;;;23.27;56.68;100650.94;5083669;28;20039;-67
2021/07/03 03:08:34;;;;;;;6.20;2.20;;;;;;;23.31;56.49;100649.75;5078194;28;20054;-69
2021/07/03 03:11:20;;;;;;;5.20;2.00;;;;;;;23.45;55.99;100654.47;5078311;28;20067;-68
2021/07/03 03:14:05;;;;;;;6.60;2.17;;;;;;;23.46;55.97;100653.28;5095566;28;20067;-68
2021/07/03 03:16:52;;;;;;;10.63;2.08;;;;;;;23.38;56.42;100657.25;5096227;28;20055;-67
2021/07/03 03:19:37;;;;;;;7.50;2.22;;;;;;;23.36;56.61;100651.31;5078922;28;20055;-67
2021/07/03 03:22:24;;;;;;;9.05;2.05;;;;;;;23.12;56.88;100657.75;5081494;28;20043;-66
2021/07/03 03:25:10;;;;;;;9.10;2.65;;;;;;;23.20;56.95;100662.88;5091760;28;20039;-66
2021/07/03 03:27:56;;;;;;;6.70;1.98;;;;;;;23.26;56.47;100654.94;5077789;28;20438;-67
2021/07/03 03:30:42;;;;;;;10.00;2.30;;;;;;;23.45;55.91;100657.25;5097578;28;20047;-67
2021/07/03 03:33:33;;;;;;;5.55;2.50;;;;;;;23.45;55.41;100665.56;5076658;28;20134;-67
2021/07/03 03:36:19;;;;;;;7.18;3.05;;;;;;;22.87;57.45;100660.59;5078194;28;20055;-67
2021/07/03 03:39:07;;;;;;;12.38;4.60;;;;;;;22.58;58.87;100659.81;5077764;28;20522;-68
2021/07/03 03:41:52;;;;;;;8.15;3.60;;;;;;;22.67;58.52;100659.41;5092446;28;20039;-67
2021/07/03 03:44:38;;;;;;;11.18;2.97;;;;;;;22.84;57.71;100664.19;5077288;28;20502;-69
2021/07/03 03:47:23;;;;;;;16.08;3.72;;;;;;;22.66;57.38;100669.72;5092461;28;20058;-69
2021/07/03 03:50:09;;;;;;;8.20;2.63;;;;;;;22.57;58.17;100669.31;5096466;28;20050;-68
2021/07/03 03:52:54;;;;;;;7.97;2.30;;;;;;;22.80;57.67;100671.72;5091703;28;20538;-67
2021/07/03 03:55:40;;;;;;;15.85;2.83;;;;;;;22.91;57.50;100670.47;5078199;28;20513;-67
2021/07/03 03:58:28;;;;;;;8.48;1.90;;;;;;;23.42;55.81;100669.91;5078109;28;20411;-67
2021/07/03 04:01:13;;;;;;;10.82;2.10;;;;;;;23.35;54.88;100669.16;5076369;28;20050;-67
2021/07/03 04:03:59;;;;;;;8.00;2.13;;;;;;;22.73;56.81;100669.75;5079012;28;20032;-67
2021/07/03 04:06:44;;;;;;;7.50;2.70;;;;;;;23.03;56.35;100669.28;5077355;28;20523;-68
2021/07/03 04:09:28;;;;;;;7.53;2.10;;;;;;;22.91;56.01;100670.47;5092863;28;20051;-66
2021/07/03 04:12:14;;;;;;;8.57;2.15;;;;;;;22.71;57.25;100680.41;5095410;28;20051;-66
2021/07/03 04:15:00;;;;;;;7.60;2.17;;;;;;;23.12;56.32;100682.72;5105583;28;20043;-67
2021/07/03 04:17:44;;;;;;;8.75;2.53;;;;;;;23.30;56.03;100686.22;5093738;28;20073;-69
2021/07/03 04:20:29;;;;;;;8.38;2.20;;;;;;;23.17;56.22;100685.06;5096530;28;20051;-66
2021/07/03 04:23:14;;;;;;;17.27;2.40;;;;;;;23.32;55.50;100694.94;5090016;28;20039;-66
2021/07/03 04:25:59;;;;;;;9.25;2.00;;;;;;;23.52;55.25;100701.63;5078895;28;20051;-66
2021/07/03 04:28:47;;;;;;;9.32;2.20;;;;;;;23.79;53.73;100699.91;5076191;28;20051;-67
2021/07/03 04:31:32;;;;;;;11.73;2.30;;;;;;;23.90;54.21;100701.81;5094205;28;20051;-69
2021/07/03 04:34:17;;;;;;;8.88;2.40;;;;;;;24.09;53.39;100704.06;5091713;28;20067;-67
2021/07/03 04:37:02;;;;;;;4.50;2.08;;;;;;;24.21;52.68;100709.19;5098486;28;20039;-68
2021/07/03 04:39:48;;;;;;;8.95;1.92;;;;;;;24.19;52.86;100704.03;5094616;28;20411;-67
2021/07/03 04:42:33;;;;;;;16.38;2.60;;;;;;;24.27;52.77;100699.22;5093131;28;20545;-66
2021/07/03 04:45:18;;;;;;;6.80;2.08;;;;;;;24.25;52.72;100696.06;5090626;28;20043;-66
2021/07/03 04:48:03;;;;;;;21.70;3.75;;;;;;;24.18;53.04;100682.19;5093751;28;20419;-67
2021/07/03 04:50:52;;;;;;;16.17;2.95;;;;;;;24.30;52.65;100692.84;5090073;28;20089;-66
2021/07/03 04:53:37;;;;;;;11.98;2.58;;;;;;;24.35;52.35;100689.63;5091315;28;20055;-68
2021/07/03 04:56:22;;;;;;;7.78;2.33;;;;;;;24.44;52.43;100701.06;5095789;28;20407;-67
2021/07/03 04:59:08;;;;;;;16.75;2.95;;;;;;;24.44;52.49;100698.28;5088279;28;20043;-67
2021/07/03 05:01:54;;;;;;;7.70;2.20;;;;;;;24.66;52.15;100690.56;5088586;28;20043;-67
2021/07/03 05:04:41;;;;;;;9.27;2.60;;;;;;;24.81;51.68;100689.22;5091860;28;20532;-70
2021/07/03 05:07:26;;;;;;;12.60;2.28;;;;;;;24.86;51.44;100668.50;5092878;28;20047;-68
2021/07/03 05:10:18;;;;;;;13.00;4.20;;;;;;;24.68;52.83;100675.03;5071143;28;20416;-69
2021/07/03 05:13:04;;;;;;;16.88;3.17;;;;;;;24.84;52.05;100662.56;5095070;28;20570;-69
2021/07/03 05:15:49;;;;;;;9.73;3.05;;;;;;;24.82;52.23;100659.41;5093993;28;20058;-68
2021/07/03 05:18:34;;;;;;;11.20;3.10;;;;;;;24.86;51.98;100663.72;5091477;28;20058;-68
2021/07/03 05:21:18;;;;;;;13.98;3.20;;;;;;;24.69;52.37;100670.25;5094657;28;20415;-68
2021/07/03 05:24:04;;;;;;;10.32;2.58;;;;;;;24.82;51.62;100671.31;5089109;28;20047;-68
2021/07/03 05:26:48;;;;;;;9.75;2.83;;;;;;;24.86;51.46;100676.84;5090326;28;20043;-68
2021/07/03 05:29:34;;;;;;;5.90;2.38;;;;;;;24.95;51.54;100682.72;5092247;28;20407;-69
2021/07/03 05:32:19;;;;;;;5.70;2.97;;;;;;;25.65;49.75;100688.69;5093134;28;20047;-68
2021/07/03 05:35:05;;;;;;;12.20;2.92;;;;;;;25.78;49.33;100690.50;5089562;28;20059;-67
2021/07/03 05:37:51;;;;;;;8.68;3.50;;;;;;;24.66;52.96;100702.47;5092447;28;20043;-67
2021/07/03 05:40:36;;;;;;;12.25;3.20;;;;;;;24.86;52.50;100696.31;5092657;28;20688;-68
2021/07/03 05:43:20;;;;;;;10.93;3.80;;;;;;;24.48;55.72;100712.94;5089381;28;20395;-67
2021/07/03 05:46:06;;;;;;;12.98;4.00;;;;;;;25.07;52.90;100715.59;5095166;28;20073;-68
2021/07/03 05:48:53;;;;;;;13.40;6.80;;;;;;;24.42;55.22;100713.81;5088892;28;20055;-68
2021/07/03 05:51:38;;;;;;;13.73;6.22;;;;;;;23.91;57.46;100709.75;5090823;28;20416;-67
2021/07/03 05:54:23;;;;;;;11.77;6.47;;;;;;;24.39;56.12;100714.59;5092430;28;20047;-66
2021/07/03 05:57:08;;;;;;;12.93;6.32;;;;;;;24.28;55.81;100714.69;5092117;28;20063;-65
2021/07/03 05:59:52;;;;;;;16.70;5.53;;;;;;;24.35;53.89;100711.06;5092960;28;20043;-67
2021/07/03 06:02:38;;;;;;;9.80;4.40;;;;;;;24.90;52.21;100716.56;5098522;28;20063;-67
2021/07/03 06:05:22;;;;;;;8.63;3.97;;;;;;;24.90;52.36;100717.38;5097160;28;20047;-67
2021/07/03 06:08:08;;;;;;;8.10;4.05;;;;;;;24.92;51.78;100726.09;5094864;28;20047;-67
2021/07/03 06:10:53;;;;;;;7.88;3.50;;;;;;;24.97;51.35;100727.63;5098827;28;20047;-67
2021/07/03 06:13:38;;;;;;;10.77;3.65;;;;;;;25.16;50.53;100732.59;5095428;28;20047;-67
2021/07/03 06:16:23;;;;;;;12.18;3.63;;;;;;;25.18;50.78;100719.06;5096353;28;20043;-67
2021/07/03 06:19:09;;;;;;;9.25;3.40;;;;;;;25.25;49.82;100716.19;5093638;28;20063;-69
2021/07/03 06:21:55;;;;;;;5.20;3.42;;;;;;;25.86;48.32;100717.03;5098112;28;20039;-67
2021/07/03 06:24:44;;;;;;;9.07;2.47;;;;;;;26.04;46.89;100716.00;5094332;28;20054;-69
2021/07/03 06:27:30;;;;;;;9.88;1.73;;;;;;;25.93;45.77;100718.94;5092281;28;20043;-68
2021/07/03 06:30:16;;;;;;;2.70;1.88;;;;;;;26.10;44.55;100715.13;5096332;28;20051;-68
2021/07/03 06:33:00;;;;;;;9.75;1.70;;;;;;;26.35;44.18;100715.56;5092703;28;20047;-66
2021/07/03 06:35:45;;;;;;;5.82;1.40;;;;;;;26.74;43.81;100712.09;5079824;28;20075;-67
2021/07/03 06:38:30;;;;;;;4.85;1.10;;;;;;;26.94;42.79;100717.75;5100576;28;20054;-68
2021/07/03 06:41:15;;;;;;;3.72;0.90;;;;;;;27.15;42.15;100720.13;5094787;28;20043;-67
2021/07/03 06:44:00;;;;;;;1.25;0.68;;;;;;;26.65;40.70;100705.50;5093319;28;20518;-68
2021/07/03 06:46:46;;;;;;;5.88;1.05;;;;;;;26.54;40.58;100713.25;5098553;28;20522;-69
2021/07/03 06:49:31;;;;;;;3.13;0.68;;;;;;;26.85;39.69;100714.69;5093922;28;20047;-67
2021/07/03 06:52:16;;;;;;;8.57;0.90;;;;;;;27.07;39.58;100706.75;5093461;28;20040;-67
2021/07/03 06:55:01;;;;;;;5.88;0.57;;;;;;;27.01;38.70;100711.25;5097362;28;20678;-67
2021/07/03 06:57:46;;;;;;;10.13;1.20;;;;;;;27.07;38.91;100712.34;5095204;28;20051;-67
2021/07/03 07:00:31;;;;;;;11.32;2.15;;;;;;;27.24;38.80;100709.19;5089339;28;20125;-67
2021/07/03 07:03:16;;;;;;;2.72;0.40;;;;;;;27.23;38.02;100715.19;5096155;28;20043;-67
2021/07/03 07:06:01;;;;;;;0.80;0.30;;;;;;;26.93;36.61;100726.53;5096420;28;20055;-67
2021/07/03 07:08:46;;;;;;;1.80;0.60;;;;;;;27.23;36.61;100727.16;5094791;28;20063;-67
2021/07/03 07:11:32;;;;;;;2.08;0.30;;;;;;;27.24;36.10;100720.34;5099207;28;20046;-66
2021/07/03 07:14:17;;;;;;;3.00;0.38;;;;;;;27.37;36.21;100722.50;5094054;28;20062;-67
2021/07/03 07:17:02;;;;;;;20.90;1.00;;;;;;;27.41;35.41;100726.00;5093904;28;20523;-68
2021/07/03 07:19:47;;;;;;;7.43;0.70;;;;;;;27.58;35.55;100733.28;5098488;28;20039;-67
2021/07/03 07:22:32;;;;;;;25.35;1.05;;;;;;;27.65;35.81;100717.13;5094826;28;20043;-67
2021/07/03 07:25:17;;;;;;;1.80;0.68;;;;;;;27.57;35.19;100714.94;5088394;28;20063;-69
2021/07/03 07:28:03;;;;;;;6.18;0.60;;;;;;;27.99;34.74;100713.97;5091260;28;20050;-67
2021/07/03 07:30:47;;;;;;;2.88;0.52;;;;;;;28.85;33.95;100718.34;5092319;28;20051;-67
2021/07/03 07:33:32;;;;;;;3.30;0.85;;;;;;;29.17;32.74;100717.47;5089723;28;20047;-67
2021/07/03 07:36:17;;;;;;;2.85;0.50;;;;;;;29.71;32.02;100712.69;5074231;28;20399;-67
2021/07/03 07:39:02;;;;;;;1.52;0.55;;;;;;;31.15;29.57;100711.19;5092630;28;20055;-69
2021/07/03 07:41:47;;;;;;;8.80;1.27;;;;;;;31.33;29.26;100705.72;5094557;28;20306;-68
2021/07/03 07:44:32;;;;;;;5.65;0.82;;;;;;;31.45;28.96;100698.44;5092796;28;20039;-67
2021/07/03 07:47:17;;;;;;;0.70;0.47;;;;;;;31.97;28.16;100708.13;5094977;28;20063;-67
2021/07/03 07:50:04;;;;;;;2.35;0.55;;;;;;;31.98;27.82;100710.47;5094441;28;20065;-68
2021/07/03 07:52:49;;;;;;;2.05;0.50;;;;;;;32.01;27.87;100714.38;5090233;28;20526;-67
2021/07/03 07:55:34;;;;;;;11.45;0.98;;;;;;;31.77;28.03;100708.50;5091781;28;20542;-68
2021/07/03 07:58:19;;;;;;;1.15;0.32;;;;;;;31.53;28.78;100721.47;5090458;28;20051;-69
2021/07/03 08:01:05;;;;;;;6.00;0.45;;;;;;;32.58;26.38;100715.69;5089754;28;20055;-68
2021/07/03 08:03:50;;;;;;;2.88;0.47;;;;;;;32.56;27.05;100706.94;5097342;28;20043;-68
2021/07/03 08:06:36;;;;;;;1.15;0.40;;;;;;;32.88;26.48;100716.84;5093733;28;20526;-69
2021/07/03 08:09:20;;;;;;;3.17;0.40;;;;;;;34.74;24.65;100722.63;5092294;28;20085;-68
2021/07/03 08:12:06;;;;;;;1.98;0.50;;;;;;;33.91;25.41;100724.25;5096758;28;20055;-69
2021/07/03 08:14:50;;;;;;;0.95;0.40;;;;;;;33.41;25.36;100720.91;5095071;28;20043;-69
2021/07/03 08:17:42;;;;;;;1.55;0.40;;;;;;;34.99;23.79;100729.78;5091692;28;20043;-69
2021/07/03 08:20:27;;;;;;;4.00;0.50;;;;;;;33.59;23.50;100734.19;5096407;28;20499;-68
2021/07/03 08:23:12;;;;;;;2.22;0.55;;;;;;;35.01;23.62;100732.91;5093042;28;20066;-67
2021/07/03 08:25:57;;;;;;;5.07;0.47;;;;;;;36.06;21.88;100734.06;5091136;28;20047;-68
2021/07/03 08:28:42;;;;;;;5.30;0.57;;;;;;;37.48;20.61;100740.59;5093052;28;20052;-68
2021/07/03 08:31:27;;;;;;;3.28;0.40;;;;;;;36.37;22.01;100751.28;5095013;28;20047;-69
2021/07/03 08:34:12;;;;;;;1.88;0.70;;;;;;;35.39;23.52;100734.97;5090716;28;20040;-69
2021/07/03 08:36:57;;;;;;;7.72;0.40;;;;;;;35.76;23.09;100741.06;5095526;28;20506;-70
2021/07/03 08:39:43;;;;;;;2.20;0.40;;;;;;;36.61;21.52;100737.00;5094845;28;20051;-69
2021/07/03 08:42:29;;;;;;;1.20;0.35;;;;;;;35.20;22.84;100740.00;5093375;28;20047;-70
2021/07/03 08:45:14;;;;;;;2.40;0.40;;;;;;;35.22;23.17;100734.63;5095003;28;20046;-67
2021/07/03 08:47:59;;;;;;;10.60;0.50;;;;;;;35.32;23.09;100730.47;5090687;28;20092;-69
2021/07/03 08:50:44;;;;;;;10.30;0.60;;;;;;;36.47;21.83;100737.03;5093281;28;20047;-68
2021/07/03 08:53:29;;;;;;;0.70;0.25;;;;;;;36.85;20.98;100739.59;5097194;28;20047;-68
2021/07/03 08:56:14;;;;;;;9.68;1.55;;;;;;;37.62;21.11;100741.78;5093301;28;20043;-69
2021/07/03 08:58:59;;;;;;;3.47;0.32;;;;;;;36.89;20.61;100734.50;5090020;28;20042;-69
2021/07/03 09:01:52;;;;;;;3.40;0.75;;;;;;;35.68;22.03;100734.19;5096528;28;20039;-69
2021/07/03 09:04:39;;;;;;;3.50;0.65;;;;;;;35.69;22.39;100738.59;5093624;28;20048;-69
2021/07/03 09:07:32;;;;;;;4.25;1.02;;;;;;;36.46;21.49;100732.63;5092349;28;20399;-69
2021/07/03 09:10:22;;;;;;;11.85;0.43;;;;;;;37.98;19.46;100729.69;5095143;28;20043;-68
2021/07/03 09:13:07;;;;;;;1.10;0.43;;;;;;;40.66;17.05;100730.34;5094065;28;20043;-72
2021/07/03 09:15:52;;;;;;;2.70;0.57;;;;;;;37.63;19.96;100729.16;5089975;28;20114;-70
2021/07/03 09:18:37;;;;;;;3.80;0.35;;;;;;;36.42;21.52;100739.25;5091883;28;20617;-70
2021/07/03 09:21:22;;;;;;;1.48;0.20;;;;;;;35.25;22.28;100725.19;5083774;28;20514;-69
2021/07/03 09:24:13;;;;;;;3.72;0.63;;;;;;;33.61;25.61;100726.03;5098868;28;20565;-72
2021/07/03 09:27:02;;;;;;;2.55;0.35;;;;;;;32.39;26.54;100728.16;5094795;28;20047;-70
2021/07/03 09:29:52;;;;;;;98.18;17.98;;;;;;;32.01;27.92;100725.63;5093921;28;20039;-71
2021/07/03 09:32:37;;;;;;;77.15;11.75;;;;;;;31.58;29.32;100726.53;5089545;28;20052;-69
2021/07/03 09:35:24;;;;;;;70.70;10.13;;;;;;;30.99;30.33;100723.38;5097525;28;20040;-69
2021/07/03 09:38:10;;;;;;;2.40;0.50;;;;;;;30.92;28.55;100725.66;5094339;28;20404;-68
2021/07/03 09:41:05;;;;;;;6.03;0.98;;;;;;;31.05;28.67;100720.78;5090436;28;20047;-68
2021/07/03 09:43:50;;;;;;;65.60;4.32;;;;;;;31.05;29.66;100725.63;5093289;28;20391;-69
2021/07/03 09:46:46;;;;;;;36.00;4.00;;;;;;;30.91;30.42;100707.22;5091597;28;20059;-69
2021/07/03 09:49:30;;;;;;;3.35;0.70;;;;;;;31.11;28.94;100699.31;5092024;28;20059;-67
2021/07/03 09:52:20;;;;;;;2.10;0.40;;;;;;;31.14;29.21;100708.88;5093230;28;20051;-70
2021/07/03 09:55:08;;;;;;;11.82;1.23;;;;;;;31.05;29.25;100695.50;5092877;28;20415;-71
2021/07/03 09:57:52;;;;;;;2.47;0.50;;;;;;;31.00;29.59;100687.63;5094102;28;20050;-70
2021/07/03 10:00:38;;;;;;;2.75;0.40;;;;;;;31.06;28.86;100685.84;5097211;28;20526;-71
2021/07/03 10:03:24;;;;;;;1.13;0.25;;;;;;;31.00;29.01;100680.00;5092242;28;20047;-70
2021/07/03 10:06:13;;;;;;;0.80;0.40;;;;;;;30.93;29.39;100687.91;5091392;28;20039;-69
2021/07/03 10:09:02;;;;;;;3.05;0.65;;;;;;;30.65;28.79;100684.06;5092703;28;20043;-70
2021/07/03 10:11:49;;;;;;;4.25;0.30;;;;;;;30.79;29.31;100688.38;5093678;28;20059;-69
2021/07/03 10:14:43;;;;;;;5.03;0.40;;;;;;;31.01;29.68;100684.38;5104519;28;20062;-69
2021/07/03 10:17:31;;;;;;;2.72;0.50;;;;;;;31.03;28.74;100681.16;5117259;28;20534;-70
2021/07/03 10:20:16;;;;;;;2.40;0.30;;;;;;;31.00;28.67;100667.97;5118990;28;20054;-68
2021/07/03 10:23:02;;;;;;;6.80;0.55;;;;;;;31.09;28.98;100665.25;5118835;28;20038;-68
2021/07/03 10:25:51;;;;;;;4.57;0.88;;;;;;;31.13;29.19;100663.13;5118879;28;20686;-70
2021/07/03 10:28:38;;;;;;;64.32;2.53;;;;;;;31.18;28.84;100659.72;5113841;28;20043;-70
2021/07/03 10:31:32;;;;;;;1.70;0.40;;;;;;;31.12;28.68;100649.53;5118854;28;20050;-68
2021/07/03 10:34:32;;;;;;;7.70;0.55;;;;;;;31.06;29.08;100640.91;5118767;28;20043;-68
2021/07/03 10:37:30;;;;;;;7.45;0.65;;;;;;;31.09;29.21;100639.22;5100019;28;20047;-70
2021/07/03 10:40:18;;;;;;;0.68;0.40;;;;;;;30.96;30.02;100636.41;5100265;28;20047;-68
2021/07/03 10:43:10;;;;;;;1.38;0.40;;;;;;;31.12;29.58;100632.66;5099383;28;20047;-70
2021/07/03 10:45:56;;;;;;;1.27;0.75;;;;;;;31.00;30.31;100625.84;5106016;28;20051;-70
2021/07/03 10:48:40;;;;;;;3.22;0.47;;;;;;;30.97;30.12;100627.56;5095274;28;20063;-69
2021/07/03 10:51:34;;;;;;;1.77;0.80;;;;;;;30.94;30.54;100633.28;5101834;28;20047;-70
2021/07/03 10:54:24;;;;;;;17.35;1.17;;;;;;;30.98;30.51;100626.28;5118384;28;20051;-69
2021/07/03 10:57:13;;;;;;;11.18;1.73;;;;;;;31.05;30.89;100618.88;5121176;28;20046;-70
2021/07/03 11:00:04;;;;;;;1.98;1.25;;;;;;;31.07;31.26;100630.44;5114820;28;20063;-68
2021/07/03 11:02:49;;;;;;;1.75;0.50;;;;;;;31.12;31.32;100625.03;5101703;28;20043;-70
2021/07/03 11:05:35;;;;;;;15.80;1.10;;;;;;;31.25;31.73;100613.69;5101715;28;20055;-71
2021/07/03 11:08:20;;;;;;;1.95;0.60;;;;;;;31.40;31.05;100609.88;5097300;28;20051;-69
2021/07/03 11:11:09;;;;;;;9.05;1.67;;;;;;;31.29;30.74;100603.88;5101901;28;20046;-69
2021/07/03 11:13:57;;;;;;;2.60;0.50;;;;;;;31.42;31.61;100600.97;5099649;28;20051;-69
2021/07/03 11:16:42;;;;;;;3.08;0.63;;;;;;;31.40;30.83;100597.84;5086088;28;20047;-69
2021/07/03 11:19:28;;;;;;;3.13;0.60;;;;;;;31.40;31.61;100593.00;5101463;28;20051;-70
2021/07/03 11:22:14;;;;;;;1.20;0.60;;;;;;;31.47;31.20;100585.53;5101268;28;20043;-69
2021/07/03 11:25:00;;;;;;;6.88;0.60;;;;;;;31.26;31.02;100587.16;5101328;28;20051;-70
2021/07/03 11:27:44;;;;;;;2.58;0.50;;;;;;;31.39;30.67;100591.44;5111988;28;20043;-70
2021/07/03 11:30:30;;;;;;;1.55;0.55;;;;;;;31.61;31.14;100587.81;5101296;28;20051;-68
2021/07/03 11:33:15;;;;;;;6.32;0.93;;;;;;;31.69;30.93;100575.81;5104611;28;20422;-70
2021/07/03 11:36:01;;;;;;;2.83;0.50;;;;;;;31.69;30.43;100572.22;5081036;28;20396;-68
2021/07/03 11:38:57;;;;;;;5.13;0.70;;;;;;;31.66;30.44;100559.09;5088835;28;20508;-70
2021/07/03 11:41:44;;;;;;;4.95;0.60;;;;;;;31.56;31.04;100561.06;5080774;28;20047;-70
2021/07/03 11:44:29;;;;;;;4.93;0.68;;;;;;;31.56;30.62;100551.84;5080533;28;20088;-71
2021/07/03 11:47:14;;;;;;;1.70;0.32;;;;;;;31.62;30.45;100548.00;5079467;28;20055;-67
2021/07/03 11:49:59;;;;;;;3.80;0.68;;;;;;;31.62;30.76;100544.38;5080577;28;20519;-71
2021/07/03 11:52:53;;;;;;;4.32;0.60;;;;;;;31.49;31.22;100546.50;5080331;28;20059;-68
2021/07/03 11:55:47;;;;;;;3.30;1.05;;;;;;;31.56;30.93;100541.38;5079770;28;20047;-70
2021/07/03 11:58:34;;;;;;;3.78;0.88;;;;;;;31.68;30.93;100548.94;5075816;28;20499;-69
2021/07/03 12:01:20;;;;;;;5.63;0.70;;;;;;;31.76;29.89;100540.97;5080331;28;20401;-68
2021/07/03 12:04:06;;;;;;;2.67;0.85;;;;;;;31.85;29.97;100547.41;5080280;28;20043;-70
2021/07/03 12:07:01;;;;;;;10.60;1.20;;;;;;;31.85;31.14;100544.59;5103808;28;20047;-69
2021/07/03 12:09:46;;;;;;;10.27;0.82;;;;;;;31.90;30.52;100534.00;5100451;28;20051;-70
2021/07/03 12:12:32;;;;;;;7.45;0.60;;;;;;;31.99;30.48;100537.59;5080042;28;20051;-69
2021/07/03 12:15:17;;;;;;;1.13;0.80;;;;;;;31.89;30.31;100529.63;5074550;28;20040;-69
2021/07/03 12:18:03;;;;;;;1.60;0.75;;;;;;;31.90;31.00;100540.38;5081510;28;20047;-67
2021/07/03 12:20:48;;;;;;;5.70;0.70;;;;;;;31.94;31.66;100534.63;5101623;28;20047;-69
2021/07/03 12:23:35;;;;;;;1.27;0.70;;;;;;;31.87;31.62;100529.28;5120330;28;20115;-68
2021/07/03 12:26:21;;;;;;;4.18;0.70;;;;;;;31.99;31.36;100523.53;5120776;28;20395;-71
2021/07/03 12:29:08;;;;;;;3.03;0.73;;;;;;;31.94;30.73;100529.78;5113973;28;20050;-70
2021/07/03 12:31:54;;;;;;;0.90;0.70;;;;;;;31.96;31.05;100516.00;5120373;28;20060;-69
2021/07/03 12:34:41;;;;;;;6.40;1.08;;;;;;;31.99;31.19;100520.72;5120266;28;20055;-70
2021/07/03 12:37:25;;;;;;;6.15;0.80;;;;;;;31.89;31.43;100516.34;5114886;28;20046;-71
2021/07/03 12:40:15;;;;;;;4.03;1.00;;;;;;;31.93;30.92;100513.38;5099454;28;20051;-70
2021/07/03 12:43:01;;;;;;;6.10;0.95;;;;;;;31.84;31.33;100514.94;5092970;28;20062;-68
2021/07/03 12:45:57;;;;;;;3.38;0.50;;;;;;;31.93;30.44;100514.16;5106001;28;20072;-70
2021/07/03 12:48:43;;;;;;;3.53;0.82;;;;;;;31.96;29.75;100521.66;5104114;28;20047;-68
2021/07/03 12:51:33;;;;;;;3.83;0.80;;;;;;;31.97;29.47;100509.16;5099529;28;20047;-69
2021/07/03 12:54:18;;;;;;;7.50;0.73;;;;;;;32.02;30.04;100497.28;5098938;28;20683;-69